EWG32V EDVK-EDDS
Flight info
| Callsign | EWG32V |
|---|---|
| Flight time | N/A |
| Altitude | 23000 |
| Route | ELNAT1E ELNAT P605 TOSTU T726 GEBNO/N0412F220 |
| Aircraft | A319/M-SDE3FGHIRWY/LB1 |
Departure
| Time | 2026-04-21 15:50 |
|---|---|
| Airport | Kassel Airport (EDVK) |
Arrival
| Time | N/A |
|---|---|
| Airport | Stuttgart Airport (EDDS) |
| Time | Latitude | Longitude | Altitude | Speed | Heading |
|---|---|---|---|---|---|
| 2026-04-21 15:29 | 51.41759 | 9.38747 | 848 ft | 0 kts | 274° |
| 2026-04-21 15:43 | 51.41756 | 9.38747 | 864 ft | 4 kts | 262° |
| 2026-04-21 15:43 | 51.41752 | 9.38783 | 848 ft | 4 kts | 289° |
| 2026-04-21 15:44 | 51.41741 | 9.38821 | 857 ft | 4 kts | 313° |
| 2026-04-21 15:44 | 51.41725 | 9.38836 | 847 ft | 1 kts | 5° |
| 2026-04-21 15:46 | 51.41770 | 9.38842 | 855 ft | 13 kts | 5° |
| 2026-04-21 15:46 | 51.41874 | 9.38856 | 856 ft | 13 kts | 5° |
| 2026-04-21 15:46 | 51.41944 | 9.38780 | 859 ft | 15 kts | 279° |
| 2026-04-21 15:47 | 51.41955 | 9.38582 | 864 ft | 23 kts | 275° |
| 2026-04-21 15:47 | 51.41969 | 9.38311 | 864 ft | 26 kts | 275° |
| 2026-04-21 15:47 | 51.41984 | 9.38034 | 864 ft | 25 kts | 275° |
| 2026-04-21 15:47 | 51.41997 | 9.37801 | 851 ft | 12 kts | 275° |
| 2026-04-21 15:48 | 51.42005 | 9.37646 | 864 ft | 16 kts | 275° |
| 2026-04-21 15:48 | 51.42015 | 9.37480 | 861 ft | 11 kts | 276° |
| 2026-04-21 15:48 | 51.42078 | 9.37425 | 868 ft | 12 kts | 2° |
| 2026-04-21 15:48 | 51.42160 | 9.37449 | 868 ft | 10 kts | 41° |
| 2026-04-21 15:49 | 51.42171 | 9.37521 | 864 ft | 0 kts | 94° |
| 2026-04-21 15:49 | 51.42161 | 9.37707 | 864 ft | 47 kts | 95° |
| 2026-04-21 15:49 | 51.42115 | 9.38571 | 864 ft | 108 kts | 95° |
| 2026-04-21 15:49 | 51.42033 | 9.40071 | 866 ft | 161 kts | 95° |
| 2026-04-21 15:50 | 51.41921 | 9.41874 | 1513 ft | 161 kts | 93° |
| 2026-04-21 15:50 | 51.41813 | 9.43650 | 2310 ft | 161 kts | 91° |
| 2026-04-21 15:50 | 51.41714 | 9.45549 | 2711 ft | 182 kts | 92° |
| 2026-04-21 15:50 | 51.41606 | 9.47696 | 3180 ft | 203 kts | 92° |
| 2026-04-21 15:51 | 51.41485 | 9.49980 | 4035 ft | 205 kts | 92° |
| 2026-04-21 15:51 | 51.41362 | 9.52260 | 5016 ft | 207 kts | 92° |
| 2026-04-21 15:51 | 51.41236 | 9.54571 | 5944 ft | 210 kts | 92° |
| 2026-04-21 15:51 | 51.41106 | 9.56934 | 6822 ft | 215 kts | 92° |
| 2026-04-21 15:52 | 51.40878 | 9.59318 | 7719 ft | 220 kts | 105° |
| 2026-04-21 15:52 | 51.40160 | 9.61514 | 8579 ft | 232 kts | 124° |
| 2026-04-21 15:52 | 51.38898 | 9.63381 | 9072 ft | 261 kts | 139° |
| 2026-04-21 15:52 | 51.37436 | 9.65184 | 9708 ft | 275 kts | 139° |
| 2026-04-21 15:53 | 51.35901 | 9.67067 | 10526 ft | 283 kts | 139° |
| 2026-04-21 15:53 | 51.34211 | 9.68944 | 10888 ft | 310 kts | 149° |
| 2026-04-21 15:53 | 51.32072 | 9.70056 | 11160 ft | 340 kts | 169° |
| 2026-04-21 15:53 | 51.29617 | 9.70057 | 11449 ft | 363 kts | 181° |
| 2026-04-21 15:54 | 51.27065 | 9.69790 | 12101 ft | 370 kts | 181° |
| 2026-04-21 15:54 | 51.24477 | 9.69517 | 12815 ft | 375 kts | 181° |
| 2026-04-21 15:54 | 51.21852 | 9.69247 | 13562 ft | 379 kts | 181° |
| 2026-04-21 15:54 | 51.19205 | 9.69033 | 14257 ft | 383 kts | 179° |
| 2026-04-21 15:55 | 51.16533 | 9.69007 | 14921 ft | 386 kts | 176° |
| 2026-04-21 15:55 | 51.13842 | 9.69110 | 15592 ft | 389 kts | 175° |
| 2026-04-21 15:55 | 51.11123 | 9.69266 | 16250 ft | 392 kts | 175° |
| 2026-04-21 15:55 | 51.08383 | 9.69426 | 16952 ft | 395 kts | 175° |
| 2026-04-21 15:56 | 51.05622 | 9.69566 | 17645 ft | 399 kts | 175° |
| 2026-04-21 15:56 | 51.02829 | 9.69685 | 18336 ft | 403 kts | 176° |
| 2026-04-21 15:56 | 51.00010 | 9.69784 | 18959 ft | 406 kts | 176° |
| 2026-04-21 15:56 | 50.97171 | 9.69864 | 19541 ft | 410 kts | 176° |
| 2026-04-21 15:57 | 50.94308 | 9.69938 | 20121 ft | 413 kts | 176° |
| 2026-04-21 15:57 | 50.91423 | 9.70016 | 20688 ft | 416 kts | 176° |
| 2026-04-21 15:57 | 50.88513 | 9.70098 | 21229 ft | 420 kts | 176° |
| 2026-04-21 15:57 | 50.85582 | 9.70216 | 21755 ft | 422 kts | 175° |
| 2026-04-21 15:58 | 50.82632 | 9.70455 | 22275 ft | 425 kts | 174° |
| 2026-04-21 15:58 | 50.79676 | 9.70781 | 22778 ft | 428 kts | 173° |
| 2026-04-21 15:58 | 50.76692 | 9.71145 | 23179 ft | 431 kts | 173° |
| 2026-04-21 15:58 | 50.73724 | 9.71510 | 23258 ft | 438 kts | 173° |
| 2026-04-21 15:59 | 50.70650 | 9.71875 | 23259 ft | 448 kts | 173° |
| 2026-04-21 15:59 | 50.67524 | 9.72223 | 23259 ft | 451 kts | 174° |
| 2026-04-21 15:59 | 50.64377 | 9.72551 | 23251 ft | 452 kts | 174° |
| 2026-04-21 15:59 | 50.61241 | 9.72863 | 23254 ft | 452 kts | 174° |
| 2026-04-21 16:00 | 50.58101 | 9.73169 | 23258 ft | 452 kts | 174° |
| 2026-04-21 16:00 | 50.54954 | 9.73474 | 23256 ft | 452 kts | 174° |
| 2026-04-21 16:00 | 50.51812 | 9.73783 | 23253 ft | 452 kts | 174° |
| 2026-04-21 16:00 | 50.48667 | 9.74098 | 23258 ft | 453 kts | 174° |
| 2026-04-21 16:01 | 50.45525 | 9.74420 | 23255 ft | 453 kts | 174° |
| 2026-04-21 16:01 | 50.42373 | 9.74746 | 23238 ft | 454 kts | 174° |
| 2026-04-21 16:01 | 50.39220 | 9.75069 | 23241 ft | 454 kts | 174° |
| 2026-04-21 16:01 | 50.36064 | 9.75390 | 23227 ft | 455 kts | 174° |
| 2026-04-21 16:02 | 50.32904 | 9.75708 | 23225 ft | 455 kts | 174° |
| 2026-04-21 16:02 | 50.29751 | 9.76025 | 23225 ft | 454 kts | 174° |
| 2026-04-21 16:02 | 50.26595 | 9.76343 | 23221 ft | 454 kts | 174° |
| 2026-04-21 16:02 | 50.23436 | 9.76661 | 23228 ft | 455 kts | 174° |
| 2026-04-21 16:03 | 50.20280 | 9.76981 | 23224 ft | 455 kts | 175° |
| 2026-04-21 16:03 | 50.17112 | 9.77302 | 23203 ft | 456 kts | 175° |
| 2026-04-21 16:03 | 50.13938 | 9.77624 | 23204 ft | 457 kts | 175° |
| 2026-04-21 16:03 | 50.10760 | 9.77940 | 23206 ft | 457 kts | 175° |
| 2026-04-21 16:04 | 50.07623 | 9.78248 | 23201 ft | 458 kts | 175° |
| 2026-04-21 16:04 | 50.04435 | 9.78538 | 23203 ft | 458 kts | 176° |
| 2026-04-21 16:04 | 50.01252 | 9.78769 | 23204 ft | 458 kts | 176° |
| 2026-04-21 16:04 | 49.98060 | 9.78961 | 23190 ft | 459 kts | 178° |
| 2026-04-21 16:05 | 49.94863 | 9.79139 | 23191 ft | 460 kts | 178° |
| 2026-04-21 16:05 | 49.91664 | 9.79315 | 23199 ft | 460 kts | 178° |
| 2026-04-21 16:05 | 49.88466 | 9.79498 | 23199 ft | 460 kts | 178° |
| 2026-04-21 16:05 | 49.85259 | 9.79691 | 23200 ft | 460 kts | 177° |
| 2026-04-21 16:06 | 49.82060 | 9.79897 | 23190 ft | 461 kts | 177° |
| 2026-04-21 16:06 | 49.78854 | 9.80108 | 23196 ft | 461 kts | 177° |
| 2026-04-21 16:06 | 49.75648 | 9.80319 | 23198 ft | 461 kts | 178° |
| 2026-04-21 16:06 | 49.72439 | 9.80528 | 23200 ft | 461 kts | 178° |
| 2026-04-21 16:07 | 49.69235 | 9.80725 | 23196 ft | 461 kts | 178° |
| 2026-04-21 16:07 | 49.66025 | 9.80888 | 23193 ft | 461 kts | 179° |
| 2026-04-21 16:07 | 49.62818 | 9.81030 | 23187 ft | 461 kts | 179° |
| 2026-04-21 16:07 | 49.59614 | 9.81426 | 23157 ft | 464 kts | 172° |
| 2026-04-21 16:08 | 49.53171 | 9.83169 | 22592 ft | 472 kts | 170° |
| 2026-04-21 16:08 | 49.49973 | 9.84060 | 22320 ft | 473 kts | 170° |
| 2026-04-21 16:08 | 49.46741 | 9.84960 | 22047 ft | 471 kts | 170° |
| 2026-04-21 16:09 | 49.43519 | 9.85857 | 21777 ft | 471 kts | 170° |
| 2026-04-21 16:09 | 49.40301 | 9.86748 | 21513 ft | 468 kts | 170° |
| 2026-04-21 16:09 | 49.37101 | 9.87629 | 21253 ft | 466 kts | 170° |
| 2026-04-21 16:09 | 49.33921 | 9.88504 | 20990 ft | 462 kts | 170° |
| 2026-04-21 16:10 | 49.30761 | 9.89370 | 20726 ft | 461 kts | 170° |
| 2026-04-21 16:10 | 49.27610 | 9.90230 | 20466 ft | 461 kts | 170° |
| 2026-04-21 16:10 | 49.24432 | 9.90669 | 20203 ft | 458 kts | 181° |
| 2026-04-21 16:10 | 49.21270 | 9.90187 | 19952 ft | 456 kts | 192° |
| 2026-04-21 16:11 | 49.18255 | 9.88791 | 19700 ft | 452 kts | 204° |
| 2026-04-21 16:11 | 49.15492 | 9.86552 | 19452 ft | 449 kts | 214° |
| 2026-04-21 16:11 | 49.13069 | 9.83576 | 19201 ft | 447 kts | 226° |
| 2026-04-21 16:11 | 49.11063 | 9.79995 | 18945 ft | 443 kts | 236° |
| 2026-04-21 16:12 | 49.09949 | 9.77399 | 18794 ft | 441 kts | 238° |
| 2026-04-21 16:12 | 49.07732 | 9.72182 | 17521 ft | 437 kts | 239° |
| 2026-04-21 16:12 | 49.06079 | 9.68330 | 16613 ft | 431 kts | 238° |
| 2026-04-21 16:12 | 49.04446 | 9.64538 | 15689 ft | 425 kts | 238° |
| 2026-04-21 16:13 | 49.02833 | 9.60793 | 14813 ft | 420 kts | 238° |
| 2026-04-21 16:13 | 49.01240 | 9.57089 | 13970 ft | 416 kts | 237° |
| 2026-04-21 16:13 | 48.99663 | 9.53416 | 13091 ft | 411 kts | 237° |
| 2026-04-21 16:13 | 48.98108 | 9.49805 | 12315 ft | 405 kts | 237° |
| 2026-04-21 16:14 | 48.96572 | 9.46243 | 11553 ft | 399 kts | 237° |
| 2026-04-21 16:14 | 48.95085 | 9.42798 | 11322 ft | 380 kts | 236° |
| 2026-04-21 16:14 | 48.93673 | 9.39528 | 11198 ft | 359 kts | 236° |
| 2026-04-21 16:14 | 48.92339 | 9.36445 | 11055 ft | 337 kts | 236° |
| 2026-04-21 16:15 | 48.91073 | 9.33605 | 10897 ft | 314 kts | 232° |
| 2026-04-21 16:15 | 48.89732 | 9.31054 | 10536 ft | 303 kts | 230° |
| 2026-04-21 16:15 | 48.88421 | 9.28578 | 10290 ft | 300 kts | 230° |
| 2026-04-21 16:15 | 48.87108 | 9.26105 | 10042 ft | 300 kts | 230° |
| 2026-04-21 16:16 | 48.85818 | 9.23678 | 9864 ft | 299 kts | 230° |
| 2026-04-21 16:16 | 48.84508 | 9.21220 | 9731 ft | 299 kts | 230° |
| 2026-04-21 16:16 | 48.83198 | 9.18764 | 9594 ft | 299 kts | 230° |
| 2026-04-21 16:16 | 48.81891 | 9.16308 | 9457 ft | 298 kts | 230° |
| 2026-04-21 16:17 | 48.80588 | 9.13862 | 9059 ft | 300 kts | 230° |
| 2026-04-21 16:17 | 48.79275 | 9.11406 | 8428 ft | 299 kts | 230° |
| 2026-04-21 16:17 | 48.77968 | 9.08965 | 7840 ft | 296 kts | 230° |
| 2026-04-21 16:17 | 48.76667 | 9.06540 | 7222 ft | 295 kts | 230° |
| 2026-04-21 16:18 | 48.75381 | 9.04137 | 6660 ft | 291 kts | 230° |
| 2026-04-21 16:18 | 48.74104 | 9.01762 | 6068 ft | 292 kts | 230° |
| 2026-04-21 16:18 | 48.72815 | 8.99379 | 5591 ft | 294 kts | 230° |
| 2026-04-21 16:18 | 48.71523 | 8.96996 | 5186 ft | 293 kts | 229° |
| 2026-04-21 16:19 | 48.70233 | 8.94616 | 4873 ft | 284 kts | 230° |
| 2026-04-21 16:19 | 48.69028 | 8.92387 | 4804 ft | 264 kts | 230° |
| 2026-04-21 16:19 | 48.67881 | 8.90324 | 4747 ft | 250 kts | 224° |
| 2026-04-21 16:19 | 48.66454 | 8.89067 | 4704 ft | 230 kts | 189° |
| 2026-04-21 16:20 | 48.64943 | 8.89206 | 4676 ft | 214 kts | 152° |
| 2026-04-21 16:20 | 48.63831 | 8.90562 | 4650 ft | 203 kts | 117° |
| 2026-04-21 16:20 | 48.63420 | 8.92526 | 4621 ft | 196 kts | 87° |
| 2026-04-21 16:20 | 48.63684 | 8.94539 | 4595 ft | 196 kts | 72° |
| 2026-04-21 16:21 | 48.64072 | 8.96516 | 4509 ft | 196 kts | 72° |
| 2026-04-21 16:21 | 48.64453 | 8.98480 | 4305 ft | 194 kts | 72° |
| 2026-04-21 16:21 | 48.64701 | 8.99771 | 4148 ft | 192 kts | 72° |
| 2026-04-21 16:21 | 48.65192 | 9.02327 | 3807 ft | 184 kts | 72° |
| 2026-04-21 16:22 | 48.65423 | 9.03531 | 3674 ft | 174 kts | 72° |
| 2026-04-21 16:22 | 48.65746 | 9.05218 | 3430 ft | 158 kts | 72° |
| 2026-04-21 16:22 | 48.66028 | 9.06695 | 3218 ft | 137 kts | 71° |
| 2026-04-21 16:22 | 48.66283 | 9.08024 | 3038 ft | 129 kts | 72° |
| 2026-04-21 16:23 | 48.66529 | 9.09308 | 2865 ft | 127 kts | 71° |
| 2026-04-21 16:23 | 48.66777 | 9.10584 | 2657 ft | 128 kts | 71° |
| 2026-04-21 16:23 | 48.67016 | 9.11846 | 2450 ft | 125 kts | 71° |
| 2026-04-21 16:23 | 48.67260 | 9.13115 | 2255 ft | 128 kts | 73° |
| 2026-04-21 16:24 | 48.67504 | 9.14393 | 2072 ft | 127 kts | 72° |
| 2026-04-21 16:24 | 48.67745 | 9.15666 | 1887 ft | 125 kts | 73° |
| 2026-04-21 16:24 | 48.67983 | 9.16925 | 1770 ft | 125 kts | 73° |
| 2026-04-21 16:24 | 48.68221 | 9.18163 | 1619 ft | 123 kts | 73° |
| 2026-04-21 16:25 | 48.68454 | 9.19401 | 1425 ft | 122 kts | 73° |
| 2026-04-21 16:25 | 48.68689 | 9.20630 | 1299 ft | 121 kts | 73° |
| 2026-04-21 16:25 | 48.68898 | 9.21714 | 1258 ft | 89 kts | 74° |